createdAt,value
2022-11-16T00:01:41.572Z,11.35
2022-11-16T00:04:11.769Z,11.33
2022-11-16T00:06:38.400Z,11.33
2022-11-16T00:09:23.064Z,11.34
2022-11-16T00:11:51.909Z,11.34
2022-11-16T00:14:19.640Z,11.33
2022-11-16T00:16:46.073Z,11.33
2022-11-16T00:19:13.118Z,11.34
2022-11-16T00:21:39.571Z,11.32
2022-11-16T00:24:06.576Z,11.31
2022-11-16T00:26:33.141Z,11.31
2022-11-16T00:28:59.592Z,11.30
2022-11-16T00:31:26.077Z,11.31
2022-11-16T00:33:52.586Z,11.31
2022-11-16T00:36:19.203Z,11.32
2022-11-16T00:38:45.894Z,11.31
2022-11-16T00:41:12.308Z,11.29
2022-11-16T00:43:38.833Z,11.28
2022-11-16T00:46:05.428Z,11.28
2022-11-16T00:48:32.319Z,11.28
2022-11-16T00:50:58.941Z,11.27
2022-11-16T00:53:25.399Z,11.28
2022-11-16T00:55:51.898Z,11.26
2022-11-16T00:58:18.337Z,11.27
2022-11-16T01:00:44.748Z,11.27
2022-11-16T01:03:11.686Z,11.26
2022-11-16T01:05:38.843Z,11.26
2022-11-16T01:08:06.341Z,11.26
2022-11-16T01:10:33.121Z,11.26
2022-11-16T01:12:59.565Z,11.27
2022-11-16T01:15:27.461Z,11.26
2022-11-16T01:17:55.858Z,11.26
2022-11-16T01:20:25.950Z,11.26
2022-11-16T01:22:52.841Z,11.26
2022-11-16T01:25:19.493Z,11.28
2022-11-16T01:27:45.981Z,11.26
2022-11-16T01:30:14.663Z,11.27
2022-11-16T01:32:41.080Z,11.26
2022-11-16T01:35:08.200Z,11.26
2022-11-16T01:37:34.812Z,11.26
2022-11-16T01:40:01.223Z,11.26
2022-11-16T01:42:30.438Z,11.25
2022-11-16T01:45:19.736Z,11.26
2022-11-16T01:47:46.721Z,11.25
2022-11-16T01:50:15.841Z,11.24
2022-11-16T01:53:01.917Z,11.24
2022-11-16T01:55:31.821Z,11.23
2022-11-16T01:57:59.213Z,11.22
2022-11-16T02:00:26.393Z,11.21
2022-11-16T02:02:52.817Z,11.20
2022-11-16T02:05:22.370Z,11.21
2022-11-16T02:08:38.493Z,11.21
2022-11-16T02:11:26.526Z,11.22
2022-11-16T02:14:11.688Z,11.21
2022-11-16T02:16:44.153Z,11.21
2022-11-16T02:19:10.496Z,11.20
2022-11-16T02:21:42.671Z,11.20
2022-11-16T02:24:33.224Z,11.20
2022-11-16T02:27:11.392Z,11.20
2022-11-16T02:29:41.508Z,11.20
2022-11-16T02:32:16.876Z,11.20
2022-11-16T02:34:55.603Z,11.18
2022-11-16T02:37:24.637Z,11.18
2022-11-16T02:39:56.148Z,11.18
2022-11-16T02:42:28.638Z,11.18
2022-11-16T02:44:58.007Z,11.17
2022-11-16T02:47:29.372Z,11.18
2022-11-16T02:50:01.867Z,11.16
2022-11-16T02:52:28.991Z,11.14
2022-11-16T02:54:55.771Z,11.14
2022-11-16T02:57:40.107Z,11.15
2022-11-16T03:00:10.181Z,11.13
2022-11-16T03:02:43.834Z,11.13
2022-11-16T03:05:34.404Z,11.12
2022-11-16T03:08:17.383Z,11.12
2022-11-16T03:11:06.025Z,11.11
2022-11-16T03:13:35.695Z,11.10
2022-11-16T03:16:09.849Z,11.10
2022-11-16T03:18:38.570Z,11.10
2022-11-16T03:21:10.498Z,11.09
2022-11-16T03:23:37.492Z,11.08
2022-11-16T03:26:08.015Z,11.08
2022-11-16T03:28:46.810Z,11.08
2022-11-16T03:31:37.601Z,11.07
2022-11-16T03:34:09.729Z,11.07
2022-11-16T03:36:41.672Z,11.07
2022-11-16T03:39:18.930Z,11.07
2022-11-16T03:41:47.684Z,11.06
2022-11-16T03:44:16.798Z,11.07
2022-11-16T03:46:45.294Z,11.08
2022-11-16T03:49:11.986Z,11.08
2022-11-16T03:51:38.739Z,11.07
2022-11-16T03:54:05.719Z,11.08
2022-11-16T03:56:32.373Z,11.07
2022-11-16T03:58:58.782Z,11.05
2022-11-16T04:01:25.246Z,11.05
2022-11-16T04:03:51.800Z,11.04
2022-11-16T04:06:37.128Z,11.04
2022-11-16T04:09:22.648Z,11.05
2022-11-16T04:12:07.901Z,11.04
2022-11-16T04:14:53.397Z,11.06
2022-11-16T04:17:41.787Z,11.03
2022-11-16T04:20:29.539Z,11.05
2022-11-16T04:23:22.874Z,11.05
2022-11-16T04:25:51.761Z,11.03
2022-11-16T04:28:22.726Z,11.02
2022-11-16T04:31:10.799Z,11.03
2022-11-16T04:33:56.112Z,11.03
2022-11-16T04:36:41.594Z,11.02
2022-11-16T04:39:08.299Z,11.01
2022-11-16T04:41:54.554Z,11.01
2022-11-16T04:44:22.851Z,11.02
2022-11-16T04:47:07.540Z,10.99
2022-11-16T04:49:34.453Z,10.98
2022-11-16T04:52:00.916Z,10.98
2022-11-16T04:54:27.384Z,10.98
2022-11-16T04:56:53.857Z,10.99
2022-11-16T04:59:20.257Z,10.98
2022-11-16T05:02:05.183Z,10.98
2022-11-16T05:04:31.591Z,10.97
2022-11-16T05:06:58.073Z,10.97
2022-11-16T05:09:24.750Z,10.97
2022-11-16T05:11:51.370Z,10.98
2022-11-16T05:14:17.815Z,10.99
2022-11-16T05:16:44.210Z,10.97
2022-11-16T05:19:29.309Z,10.98
2022-11-16T05:21:55.740Z,10.96
2022-11-16T05:24:34.279Z,10.96
2022-11-16T05:27:09.494Z,10.95
2022-11-16T05:29:36.470Z,10.94
2022-11-16T05:32:04.242Z,10.95
2022-11-16T05:34:30.921Z,10.94
2022-11-16T05:36:58.119Z,10.93
2022-11-16T05:39:24.977Z,10.92
2022-11-16T05:41:52.931Z,10.91
2022-11-16T05:44:19.890Z,10.91
2022-11-16T05:46:46.914Z,10.91
2022-11-16T05:49:13.862Z,10.90
2022-11-16T05:51:41.871Z,10.90
2022-11-16T05:54:11.045Z,10.90
2022-11-16T05:56:37.601Z,10.89
2022-11-16T05:59:04.077Z,10.89
2022-11-16T06:01:30.722Z,10.88
2022-11-16T06:04:00.341Z,10.87
2022-11-16T06:06:27.923Z,10.86
2022-11-16T06:08:54.810Z,10.87
2022-11-16T06:11:21.602Z,10.84
2022-11-16T06:13:48.010Z,10.81
2022-11-16T06:16:14.474Z,10.80
2022-11-16T06:18:43.048Z,10.78
2022-11-16T06:21:10.734Z,10.75
2022-11-16T06:23:37.674Z,10.72
2022-11-16T06:26:05.472Z,10.69
2022-11-16T06:28:32.786Z,10.67
2022-11-16T06:30:59.640Z,10.63
2022-11-16T06:33:28.578Z,10.60
2022-11-16T06:35:58.790Z,10.57
2022-11-16T06:38:25.383Z,10.52
2022-11-16T06:40:53.562Z,10.52
2022-11-16T06:43:20.828Z,10.50
2022-11-16T06:45:52.286Z,10.47
2022-11-16T06:48:19.849Z,10.45
2022-11-16T06:50:50.774Z,10.42
2022-11-16T06:53:18.173Z,10.41
2022-11-16T06:55:44.751Z,10.40
2022-11-16T06:58:11.220Z,10.35
2022-11-16T07:00:37.696Z,10.32
2022-11-16T07:03:04.655Z,10.29
2022-11-16T07:05:31.880Z,10.27
2022-11-16T07:07:58.627Z,10.25
2022-11-16T07:10:26.289Z,10.26
2022-11-16T07:12:52.747Z,10.21
2022-11-16T07:15:19.993Z,10.17
2022-11-16T07:17:46.857Z,10.16
2022-11-16T07:20:13.768Z,10.17
2022-11-16T07:22:40.432Z,10.16
2022-11-16T07:25:07.655Z,10.15
2022-11-16T07:27:34.110Z,10.16
2022-11-16T07:30:02.039Z,10.13
2022-11-16T07:32:30.982Z,10.12
2022-11-16T07:34:59.357Z,10.08
2022-11-16T07:37:26.326Z,10.10
2022-11-16T07:39:52.915Z,10.07
2022-11-16T07:42:19.359Z,10.08
2022-11-16T07:44:45.834Z,10.04
2022-11-16T07:47:12.219Z,10.03
2022-11-16T07:49:38.659Z,10.03
2022-11-16T07:52:05.100Z,10.06
2022-11-16T07:54:31.517Z,10.05
2022-11-16T07:56:57.982Z,10.02
2022-11-16T07:59:24.373Z,10.03
2022-11-16T08:01:50.960Z,10.01
2022-11-16T08:04:17.579Z,10.01
2022-11-16T08:06:44.662Z,10.02
2022-11-16T08:09:11.125Z,9.99
2022-11-16T08:11:38.003Z,9.97
2022-11-16T08:14:04.570Z,10.01
2022-11-16T08:16:33.214Z,9.97
2022-11-16T08:19:00.984Z,9.99
2022-11-16T08:21:27.415Z,9.94
2022-11-16T08:23:58.077Z,9.96
2022-11-16T08:26:25.279Z,9.96
2022-11-16T08:28:53.696Z,9.97
2022-11-16T08:31:22.309Z,9.93
2022-11-16T08:33:48.747Z,9.91
2022-11-16T08:36:18.704Z,9.88
2022-11-16T08:38:46.964Z,9.90
2022-11-16T08:41:14.235Z,9.93
2022-11-16T08:43:41.159Z,9.95
2022-11-16T08:46:09.368Z,9.90
2022-11-16T08:48:37.432Z,9.89
2022-11-16T08:51:16.901Z,9.87
2022-11-16T08:53:44.251Z,9.88
2022-11-16T08:56:13.228Z,9.88
2022-11-16T08:58:42.386Z,9.87
2022-11-16T09:01:20.214Z,9.90
2022-11-16T09:03:46.856Z,9.91
2022-11-16T09:06:14.024Z,9.91
2022-11-16T09:08:42.585Z,9.93
2022-11-16T09:11:18.382Z,10.00
2022-11-16T09:13:46.552Z,10.06
2022-11-16T09:16:16.662Z,10.10
2022-11-16T09:18:47.066Z,10.12
2022-11-16T09:21:23.959Z,10.20
2022-11-16T09:23:51.398Z,10.16
2022-11-16T09:26:21.177Z,10.20
2022-11-16T09:28:48.149Z,10.23
2022-11-16T09:31:17.649Z,10.29
2022-11-16T09:33:48.665Z,10.25
2022-11-16T09:36:15.755Z,10.23
2022-11-16T09:39:14.344Z,10.22
2022-11-16T09:42:15.443Z,10.26
2022-11-16T09:44:55.835Z,10.33
2022-11-16T09:47:26.243Z,10.35
2022-11-16T09:49:59.805Z,10.38
2022-11-16T09:52:45.661Z,10.39
2022-11-16T09:55:34.843Z,10.42
2022-11-16T09:58:07.680Z,10.42
2022-11-16T10:00:36.084Z,10.43
2022-11-16T10:03:10.928Z,10.42
2022-11-16T10:06:02.715Z,10.44
2022-11-16T10:08:51.234Z,10.45
2022-11-16T10:11:43.692Z,10.42
2022-11-16T10:14:22.238Z,10.36
2022-11-16T10:17:06.690Z,10.31
2022-11-16T10:19:52.364Z,10.28
2022-11-16T10:22:40.279Z,10.23
2022-11-16T10:25:35.966Z,10.20
2022-11-16T10:28:34.900Z,10.17
2022-11-16T10:31:15.791Z,10.17
2022-11-16T10:33:46.152Z,10.19
2022-11-16T10:36:14.874Z,10.17
2022-11-16T10:38:43.202Z,10.22
2022-11-16T10:41:22.446Z,10.25
2022-11-16T10:43:49.544Z,10.30
2022-11-16T10:46:33.877Z,10.34
2022-11-16T10:49:00.332Z,10.40
2022-11-16T10:51:26.853Z,10.44
2022-11-16T10:53:54.168Z,10.48
2022-11-16T10:56:37.374Z,10.46
2022-11-16T10:59:05.196Z,10.46
2022-11-16T11:01:38.960Z,10.55
2022-11-16T11:04:19.523Z,10.58
2022-11-16T11:06:47.962Z,10.66
2022-11-16T11:09:20.094Z,10.71
2022-11-16T11:12:17.209Z,10.78
2022-11-16T11:15:13.401Z,10.72
2022-11-16T11:17:45.190Z,10.70
2022-11-16T11:20:17.852Z,10.70
2022-11-16T11:23:02.301Z,10.70
2022-11-16T11:25:35.452Z,10.74
2022-11-16T11:28:27.689Z,10.75
2022-11-16T11:31:11.665Z,10.81
2022-11-16T11:33:43.996Z,10.81
2022-11-16T11:36:20.436Z,10.90
2022-11-16T11:39:07.253Z,10.96
2022-11-16T11:41:36.855Z,10.97
2022-11-16T11:44:14.945Z,10.96
2022-11-16T11:47:35.276Z,11.00
2022-11-16T11:49:39.501Z,10.97
2022-11-16T11:52:21.291Z,11.03
2022-11-16T11:54:50.254Z,11.19
2022-11-16T11:57:22.043Z,11.20
2022-11-16T11:59:52.293Z,11.27
2022-11-16T12:02:47.718Z,11.17
2022-11-16T12:05:14.137Z,11.10
2022-11-16T12:08:14.619Z,11.02
2022-11-16T12:10:40.971Z,11.11
2022-11-16T12:13:26.261Z,11.27
2022-11-16T12:16:13.877Z,11.29
2022-11-16T12:18:51.774Z,11.26
2022-11-16T12:21:34.379Z,11.27
2022-11-16T12:24:03.847Z,11.26
2022-11-16T12:26:39.154Z,11.31
2022-11-16T12:29:20.866Z,11.43
2022-11-16T12:32:19.742Z,11.52
2022-11-16T12:34:49.207Z,11.68
2022-11-16T12:37:28.059Z,11.56
2022-11-16T12:40:16.514Z,11.46
2022-11-16T12:42:49.055Z,11.43
2022-11-16T12:45:42.793Z,11.43
2022-11-16T12:48:21.900Z,11.47
2022-11-16T12:51:07.048Z,11.52
2022-11-16T12:54:04.697Z,11.55
2022-11-16T12:56:49.052Z,11.63
2022-11-16T12:59:25.006Z,11.67
2022-11-16T13:02:29.161Z,11.83
2022-11-16T13:05:03.764Z,11.83
2022-11-16T13:07:41.235Z,12.03
2022-11-16T13:10:30.786Z,12.51
2022-11-16T13:13:29.575Z,13.08
2022-11-16T13:15:48.284Z,13.46
2022-11-16T13:18:18.308Z,13.62
2022-11-16T13:20:47.658Z,13.35
2022-11-16T13:23:33.450Z,13.07
2022-11-16T13:26:29.131Z,12.64
2022-11-16T13:29:13.400Z,12.36
2022-11-16T13:31:51.529Z,12.60
2022-11-16T13:34:26.128Z,12.69
2022-11-16T13:36:52.726Z,12.68
2022-11-16T13:39:22.907Z,12.61
2022-11-16T13:42:07.564Z,12.81
2022-11-16T13:44:34.681Z,12.87
2022-11-16T13:47:04.763Z,12.79
2022-11-16T13:49:34.422Z,12.63
2022-11-16T13:52:22.711Z,12.50
2022-11-16T13:54:53.672Z,12.36
2022-11-16T13:57:32.881Z,12.35
2022-11-16T14:00:02.026Z,12.27
2022-11-16T14:02:35.004Z,12.13
2022-11-16T14:05:15.992Z,12.02
2022-11-16T14:07:47.106Z,11.96
2022-11-16T14:10:33.475Z,11.85
2022-11-16T14:13:01.094Z,11.81
2022-11-16T14:15:33.721Z,11.78
2022-11-16T14:18:07.616Z,11.86
2022-11-16T14:20:52.301Z,12.03
2022-11-16T14:23:22.377Z,12.22
2022-11-16T14:26:27.513Z,12.31
2022-11-16T14:29:31.321Z,12.26
2022-11-16T14:32:01.010Z,12.08
2022-11-16T14:34:39.319Z,11.96
2022-11-16T14:37:05.998Z,11.86
2022-11-16T14:39:41.414Z,11.81
2022-11-16T14:42:18.214Z,11.73
2022-11-16T14:44:45.024Z,11.69
2022-11-16T14:47:29.181Z,11.65
2022-11-16T14:49:57.476Z,11.60
2022-11-16T14:52:39.743Z,11.56
2022-11-16T14:55:09.395Z,11.55
2022-11-16T14:57:35.956Z,11.49
2022-11-16T15:00:18.807Z,11.50
2022-11-16T15:02:51.510Z,11.48
2022-11-16T15:05:23.636Z,11.40
2022-11-16T15:07:52.873Z,11.30
2022-11-16T15:10:26.180Z,11.20
2022-11-16T15:12:54.938Z,11.11
2022-11-16T15:15:27.721Z,11.12
2022-11-16T15:18:00.148Z,11.07
2022-11-16T15:20:29.117Z,10.99
2022-11-16T15:22:58.513Z,10.94
2022-11-16T15:25:24.958Z,10.94
2022-11-16T15:27:52.350Z,10.95
2022-11-16T15:30:22.222Z,10.97
2022-11-16T15:32:50.520Z,10.92
2022-11-16T15:35:23.008Z,10.87
2022-11-16T15:38:20.606Z,10.83
2022-11-16T15:40:50.785Z,10.81
2022-11-16T15:43:18.746Z,10.76
2022-11-16T15:45:46.527Z,10.71
2022-11-16T15:48:20.639Z,10.66
2022-11-16T15:51:13.642Z,10.61
2022-11-16T15:53:48.131Z,10.56
2022-11-16T15:56:26.767Z,10.53
2022-11-16T15:58:59.076Z,10.48
2022-11-16T16:01:25.980Z,10.46
2022-11-16T16:04:05.053Z,10.42
2022-11-16T16:06:46.782Z,10.38
2022-11-16T16:09:34.865Z,10.35
2022-11-16T16:12:26.228Z,10.31
2022-11-16T16:14:52.777Z,10.29
2022-11-16T16:17:28.148Z,10.29
2022-11-16T16:20:19.976Z,10.27
2022-11-16T16:22:46.549Z,10.23
2022-11-16T16:25:28.429Z,10.20
2022-11-16T16:27:54.928Z,10.16
2022-11-16T16:30:21.522Z,10.12
2022-11-16T16:32:49.910Z,10.10
2022-11-16T16:35:25.433Z,10.08
2022-11-16T16:37:58.072Z,10.05
2022-11-16T16:40:26.102Z,10.02
2022-11-16T16:42:53.300Z,9.96
2022-11-16T16:45:25.697Z,9.96
2022-11-16T16:47:52.104Z,9.99
2022-11-16T16:50:18.534Z,9.96
2022-11-16T16:52:45.630Z,9.97
2022-11-16T16:55:12.093Z,9.96
2022-11-16T16:57:38.549Z,9.89
2022-11-16T17:00:05.406Z,9.89
2022-11-16T17:02:31.836Z,9.88
2022-11-16T17:04:58.385Z,9.87
2022-11-16T17:07:25.178Z,9.87
2022-11-16T17:09:51.668Z,9.86
2022-11-16T17:12:18.094Z,9.89
2022-11-16T17:14:51.271Z,9.90
2022-11-16T17:17:24.474Z,9.89
2022-11-16T17:19:51.302Z,9.89
2022-11-16T17:22:19.089Z,9.88
2022-11-16T17:24:45.648Z,9.87
2022-11-16T17:27:12.477Z,9.84
2022-11-16T17:29:38.959Z,9.83
2022-11-16T17:32:05.869Z,9.81
2022-11-16T17:34:32.396Z,9.82
2022-11-16T17:36:58.868Z,9.80
2022-11-16T17:39:25.258Z,9.78
2022-11-16T17:41:51.811Z,9.76
2022-11-16T17:44:21.852Z,9.74
2022-11-16T17:46:48.606Z,9.73
2022-11-16T17:49:15.251Z,9.71
2022-11-16T17:51:41.758Z,9.68
2022-11-16T17:54:08.182Z,9.66
2022-11-16T17:56:34.634Z,9.62
2022-11-16T17:59:01.102Z,9.65
2022-11-16T18:01:28.435Z,9.62
2022-11-16T18:03:55.144Z,9.63
2022-11-16T18:06:23.910Z,9.61
2022-11-16T18:08:51.119Z,9.61
2022-11-16T18:11:23.068Z,9.58
2022-11-16T18:13:57.645Z,9.57
2022-11-16T18:16:27.260Z,9.55
2022-11-16T18:19:03.163Z,9.51
2022-11-16T18:21:30.081Z,9.49
2022-11-16T18:23:59.147Z,9.50
2022-11-16T18:26:25.710Z,9.49
2022-11-16T18:28:53.107Z,9.49
2022-11-16T18:31:21.839Z,9.50
2022-11-16T18:33:49.286Z,9.50
2022-11-16T18:36:16.997Z,9.50
2022-11-16T18:38:43.640Z,9.48
2022-11-16T18:41:13.049Z,9.49
2022-11-16T18:43:49.177Z,9.45
2022-11-16T18:46:16.123Z,9.41
2022-11-16T18:48:43.352Z,9.41
2022-11-16T18:51:11.125Z,9.39
2022-11-16T18:53:38.039Z,9.39
2022-11-16T18:56:05.155Z,9.41
2022-11-16T19:01:22.210Z,9.42
2022-11-16T19:03:48.882Z,9.43
2022-11-16T19:06:17.435Z,9.42
2022-11-16T19:08:44.143Z,9.41
2022-11-16T19:11:15.054Z,9.45
2022-11-16T19:13:43.394Z,9.45
2022-11-16T19:16:11.823Z,9.46
2022-11-16T19:18:38.509Z,9.46
2022-11-16T19:21:07.414Z,9.46
2022-11-16T19:23:48.370Z,9.46
2022-11-16T19:26:16.876Z,9.48
2022-11-16T19:28:46.314Z,9.50
2022-11-16T19:31:24.457Z,9.54
2022-11-16T19:33:55.891Z,9.56
2022-11-16T19:36:23.130Z,9.56
2022-11-16T19:38:49.846Z,9.60
2022-11-16T19:41:17.708Z,9.62
2022-11-16T19:43:44.219Z,9.67
2022-11-16T19:46:13.438Z,9.76
2022-11-16T19:48:39.838Z,9.75
2022-11-16T19:51:08.497Z,9.76
2022-11-16T19:53:36.232Z,9.75
2022-11-16T19:56:03.719Z,9.75
2022-11-16T19:58:31.931Z,9.74
2022-11-16T20:01:07.130Z,9.77
2022-11-16T20:03:34.360Z,9.79
2022-11-16T20:06:10.038Z,9.77
2022-11-16T20:08:38.640Z,9.79
2022-11-16T20:11:20.489Z,9.78
2022-11-16T20:13:47.939Z,9.79
2022-11-16T20:16:15.285Z,9.86
2022-11-16T20:18:42.787Z,9.84
2022-11-16T20:21:16.433Z,9.85
2022-11-16T20:23:44.563Z,9.87
2022-11-16T20:26:12.295Z,9.89
2022-11-16T20:28:40.799Z,9.89
2022-11-16T20:31:11.200Z,9.89
2022-11-16T20:33:38.051Z,9.93
2022-11-16T20:36:08.077Z,9.90
2022-11-16T20:38:35.786Z,9.91
2022-11-16T20:41:14.162Z,9.91
2022-11-16T20:43:42.143Z,9.95
2022-11-16T20:46:11.666Z,9.96
2022-11-16T20:48:39.461Z,9.99
2022-11-16T20:51:07.041Z,9.98
2022-11-16T20:53:34.180Z,9.98
2022-11-16T20:56:04.723Z,9.98
2022-11-16T20:58:32.501Z,10.03
2022-11-16T21:01:06.637Z,10.05
2022-11-16T21:03:33.699Z,10.07
2022-11-16T21:06:01.056Z,10.08
2022-11-16T21:08:29.541Z,10.07
2022-11-16T21:10:56.467Z,10.09
2022-11-16T21:13:42.081Z,10.11
2022-11-16T21:16:13.689Z,10.11
2022-11-16T21:18:40.212Z,10.14
2022-11-16T21:21:09.325Z,10.15
2022-11-16T21:23:36.493Z,10.12
2022-11-16T21:26:05.078Z,10.11
2022-11-16T21:28:31.637Z,10.16
2022-11-16T21:31:03.355Z,10.17
2022-11-16T21:33:29.996Z,10.15
2022-11-16T21:35:56.657Z,10.19
2022-11-16T21:38:25.488Z,10.21
2022-11-16T21:40:51.945Z,10.16
2022-11-16T21:43:18.584Z,10.18
2022-11-16T21:45:47.459Z,10.26
2022-11-16T21:48:14.350Z,10.21
2022-11-16T21:50:41.185Z,10.24
2022-11-16T21:53:08.620Z,10.25
2022-11-16T21:55:35.353Z,10.26
2022-11-16T21:58:05.692Z,10.23
2022-11-16T22:00:32.183Z,10.23
2022-11-16T22:02:58.751Z,10.22
2022-11-16T22:05:43.761Z,10.20
2022-11-16T22:08:11.709Z,10.25
2022-11-16T22:10:38.143Z,10.25
2022-11-16T22:13:04.542Z,10.19
2022-11-16T22:15:31.026Z,10.19
2022-11-16T22:17:57.436Z,10.17
2022-11-16T22:20:23.849Z,10.23
2022-11-16T22:22:50.316Z,10.28
2022-11-16T22:25:17.102Z,10.30
2022-11-16T22:28:18.689Z,10.28
2022-11-16T22:30:33.539Z,10.31
2022-11-16T22:32:59.951Z,10.32
2022-11-16T22:35:26.368Z,10.35
2022-11-16T22:37:52.874Z,10.42
2022-11-16T22:40:19.311Z,10.41
2022-11-16T22:42:46.039Z,10.39
2022-11-16T22:45:12.451Z,10.36
2022-11-16T22:47:38.834Z,10.36
2022-11-16T22:50:05.669Z,10.33
2022-11-16T22:52:32.123Z,10.31
2022-11-16T22:54:58.541Z,10.29
2022-11-16T22:57:24.987Z,10.28
2022-11-16T22:59:51.477Z,10.26
2022-11-16T23:02:17.932Z,10.24
2022-11-16T23:04:44.386Z,10.23
2022-11-16T23:07:10.822Z,10.19
2022-11-16T23:09:37.334Z,10.16
2022-11-16T23:12:22.391Z,10.14
2022-11-16T23:15:07.229Z,10.12
2022-11-16T23:35:16.986Z,10.05
2022-11-16T23:37:53.440Z,10.03
2022-11-16T23:40:21.882Z,10.04
2022-11-16T23:43:06.871Z,10.04
2022-11-16T23:45:33.501Z,10.06
2022-11-16T23:47:59.986Z,10.06
2022-11-16T23:50:26.486Z,10.04
2022-11-16T23:52:52.922Z,10.05
2022-11-16T23:55:19.435Z,10.05
2022-11-16T23:57:45.852Z,10.05
